Time;durP1;ratioP1;P1;durP2;ratioP2;P2;SDS_P1;SDS_P2;PMS_P1;PMS_P2;Temp;Humidity;BMP_temperature;BMP_pressure;BME280_temperature;BME280_humidity;BME280_pressure;Samples;Min_cycle;Max_cycle;Signal;HPM_P1;HPM_P2
2022/06/06 00:02:03;;;;;;;;;7.25;5.50;;;;;18.40;59.20;101157.16;5120660;27;45411;-69
2022/06/06 00:04:29;;;;;;;;;8.75;8.00;;;;;18.42;59.05;101162.38;5118240;27;45287;-70
2022/06/06 00:06:56;;;;;;;;;10.25;8.00;;;;;18.40;59.05;101157.16;5113906;27;45461;-69
2022/06/06 00:09:22;;;;;;;;;5.25;5.25;;;;;18.37;59.69;101154.66;5110647;27;45390;-68
2022/06/06 00:11:48;;;;;;;;;7.75;7.00;;;;;18.36;59.51;101159.13;5111272;27;45429;-68
2022/06/06 00:14:14;;;;;;;;;9.50;7.50;;;;;18.35;59.55;101162.69;5095442;27;65942;-69
2022/06/06 00:16:40;;;;;;;;;8.50;7.75;;;;;18.34;59.39;101153.03;5115053;27;45719;-69
2022/06/06 00:19:05;;;;;;;;;8.25;8.25;;;;;18.34;59.56;101158.34;5119384;27;45450;-69
2022/06/06 00:21:33;;;;;;;;;10.00;8.50;;;;;18.35;59.68;101164.50;5119201;27;45235;-69
2022/06/06 00:23:59;;;;;;;;;12.75;10.75;;;;;18.33;59.84;101156.63;5117465;27;45305;-68
2022/06/06 00:26:27;;;;;;;;;19.25;14.75;;;;;18.35;59.52;101161.84;5122383;27;45302;-69
2022/06/06 00:28:52;;;;;;;;;12.50;10.75;;;;;18.33;59.84;101159.25;5109326;27;45489;-69
2022/06/06 00:36:45;;;;;;;;;32.75;29.00;;;;;18.22;59.65;101137.78;5114997;27;45161;-69
2022/06/06 00:39:13;;;;;;;;;14.75;13.75;;;;;18.23;59.51;101143.94;5108346;27;56771;-69
2022/06/06 00:41:40;;;;;;;;;21.75;18.00;;;;;18.21;59.61;101142.22;5118659;27;45423;-69
2022/06/06 00:44:11;;;;;;;;;18.25;14.00;;;;;18.20;59.87;101143.16;5114460;27;46230;-69
2022/06/06 00:46:42;;;;;;;;;15.00;13.00;;;;;18.20;59.79;101140.53;5097067;27;45483;-69
2022/06/06 00:49:14;;;;;;;;;13.25;13.00;;;;;18.20;59.75;101140.53;5107697;27;46320;-70
2022/06/06 00:51:39;;;;;;;;;17.25;16.50;;;;;18.15;60.19;101124.00;5093293;27;45450;-69
2022/06/06 00:54:06;;;;;;;;;20.00;15.50;;;;;18.20;59.97;101129.91;5103244;27;55142;-69
2022/06/06 00:56:43;;;;;;;;;19.50;16.00;;;;;18.18;59.98;101121.22;5098026;27;46681;-68
2022/06/06 00:59:12;;;;;;;;;19.00;15.25;;;;;18.18;60.04;101118.56;5114062;27;45378;-68
2022/06/06 01:01:38;;;;;;;;;51.25;40.50;;;;;18.16;60.04;101123.06;5078098;27;45383;-68
2022/06/06 01:04:05;;;;;;;;;41.00;33.50;;;;;18.17;59.93;101124.78;5086742;27;47406;-69
2022/06/06 01:06:34;;;;;;;;;24.50;20.00;;;;;18.16;60.03;101125.69;5104217;27;45552;-70
2022/06/06 01:08:59;;;;;;;;;17.25;15.00;;;;;18.18;59.94;101131.81;5094232;27;45462;-70
2022/06/06 01:11:25;;;;;;;;;16.50;14.50;;;;;18.15;60.12;101128.44;5111404;27;45266;-69
2022/06/06 01:13:51;;;;;;;;;19.75;16.50;;;;;18.16;60.35;101120.41;5111172;27;64183;-69
2022/06/06 01:16:24;;;;;;;;;13.50;12.50;;;;;18.16;60.35;101125.69;5111637;27;70265;-69
2022/06/06 01:19:13;;;;;;;;;15.50;13.25;;;;;18.13;60.50;101115.28;5119926;27;45297;-70
2022/06/06 01:22:15;;;;;;;;;20.25;17.25;;;;;18.15;60.24;101110.75;5115421;27;45481;-68
2022/06/06 01:25:09;;;;;;;;;16.00;12.25;;;;;18.15;60.27;101118.72;5106362;27;45378;-69
2022/06/06 01:27:46;;;;;;;;;17.00;14.25;;;;;18.14;60.20;101114.34;5091063;27;47308;-71
2022/06/06 01:30:15;;;;;;;;;16.50;12.00;;;;;18.15;60.21;101118.72;5079831;27;45764;-69
2022/06/06 01:32:48;;;;;;;;;13.25;11.00;;;;;18.14;60.33;101116.97;5092661;27;45594;-70
2022/06/06 01:35:43;;;;;;;;;12.75;9.75;;;;;18.14;60.29;101110.84;5090087;27;46383;-70
2022/06/06 01:38:10;;;;;;;;;11.00;10.00;;;;;18.13;60.19;101112.66;5105563;27;45412;-70
2022/06/06 01:40:43;;;;;;;;;11.00;10.00;;;;;18.12;60.44;101116.22;5104780;27;45406;-70
2022/06/06 01:43:45;;;;;;;;;10.00;10.00;;;;;18.12;60.17;101108.28;5104195;27;45465;-70
2022/06/06 01:46:26;;;;;;;;;9.25;8.50;;;;;18.12;60.21;101121.50;5084257;27;45599;-70
2022/06/06 01:48:52;;;;;;;;;12.00;9.00;;;;;18.10;60.36;101115.44;5109881;27;45323;-71
2022/06/06 01:51:22;;;;;;;;;9.75;8.25;;;;;18.09;60.46;101121.66;5093615;27;45336;-70
2022/06/06 01:53:47;;;;;;;;;6.00;6.00;;;;;18.12;60.44;101120.66;5117968;27;45383;-71
2022/06/06 01:56:17;;;;;;;;;7.00;6.00;;;;;18.09;59.40;101110.22;5093089;27;46331;-68
2022/06/06 01:58:43;;;;;;;;;6.25;5.75;;;;;18.06;59.99;101105.06;5115577;27;45278;-71
2022/06/06 02:01:08;;;;;;;;;7.50;6.75;;;;;18.06;59.60;101115.66;5109602;27;63526;-70
2022/06/06 02:03:34;;;;;;;;;6.25;4.75;;;;;18.03;59.34;101114.06;5109739;27;45434;-71
2022/06/06 02:06:02;;;;;;;;;9.75;6.50;;;;;18.01;59.32;101103.53;5114215;27;45331;-71
2022/06/06 02:08:28;;;;;;;;;5.00;4.00;;;;;17.97;58.90;101101.13;5113747;27;45429;-70
2022/06/06 02:10:53;;;;;;;;;4.50;4.50;;;;;17.94;58.64;101106.59;5120120;27;45416;-70
2022/06/06 02:13:19;;;;;;;;;5.00;5.00;;;;;17.91;58.90;101112.88;5089785;27;45342;-70
2022/06/06 02:15:44;;;;;;;;;6.00;5.50;;;;;17.89;58.77;101109.47;5111215;27;73985;-70
2022/06/06 02:18:10;;;;;;;;;5.00;3.00;;;;;17.89;58.94;101112.13;5117098;27;69585;-70
2022/06/06 02:20:35;;;;;;;;;7.50;5.75;;;;;17.89;58.82;101111.28;5107613;27;45386;-70
2022/06/06 02:23:01;;;;;;;;;6.25;5.00;;;;;17.86;58.94;101101.69;5114517;27;45364;-70
2022/06/06 02:25:29;;;;;;;;;6.00;6.00;;;;;17.79;58.99;101101.09;5110146;27;45703;-69
2022/06/06 02:27:54;;;;;;;;;4.75;4.00;;;;;17.73;58.87;101098.78;5109706;27;45473;-69
2022/06/06 02:30:25;;;;;;;;;5.75;5.75;;;;;17.72;59.14;101105.00;5112603;27;45393;-69
2022/06/06 02:32:50;;;;;;;;;6.75;5.25;;;;;17.69;59.17;101101.66;5109862;27;45550;-69
2022/06/06 02:35:19;;;;;;;;;6.00;4.25;;;;;17.67;59.22;101108.81;5115159;27;53506;-69
2022/06/06 02:37:46;;;;;;;;;8.00;5.00;;;;;17.62;58.93;101103.78;5116461;27;45388;-68
2022/06/06 02:40:15;;;;;;;;;6.50;5.75;;;;;17.57;59.73;101103.16;5117279;27;45315;-69
2022/06/06 02:42:40;;;;;;;;;4.75;4.50;;;;;17.54;59.54;101108.59;5108770;27;45501;-70
2022/06/06 02:45:07;;;;;;;;;5.00;5.00;;;;;17.48;59.46;101106.25;5107376;27;45383;-68
2022/06/06 02:47:32;;;;;;;;;5.25;5.00;;;;;17.44;59.98;101108.16;5109286;27;45331;-69
2022/06/06 02:49:57;;;;;;;;;5.75;4.75;;;;;17.43;59.85;101104.69;5121443;27;45762;-69
2022/06/06 02:52:23;;;;;;;;;5.00;4.50;;;;;17.42;59.45;101103.00;5110481;27;73185;-69
2022/06/06 02:54:48;;;;;;;;;5.75;4.50;;;;;17.40;59.72;101102.19;5103241;27;46079;-69
2022/06/06 02:57:14;;;;;;;;;5.50;4.75;;;;;17.39;59.21;101108.41;5112758;27;73360;-69
2022/06/06 02:59:41;;;;;;;;;6.75;5.75;;;;;17.38;58.99;101095.25;5116782;27;63911;-70
2022/06/06 03:02:08;;;;;;;;;4.50;4.00;;;;;17.38;59.08;101095.25;5109055;27;45266;-69
2022/06/06 03:04:34;;;;;;;;;4.00;4.00;;;;;17.33;58.53;101090.19;5100336;27;46315;-69
2022/06/06 03:07:20;;;;;;;;;5.50;4.00;;;;;17.30;58.30;101098.31;5120617;27;45437;-69
2022/06/06 03:09:55;;;;;;;;;3.00;3.00;;;;;17.26;58.38;101094.06;5100268;27;45308;-68
2022/06/06 03:12:38;;;;;;;;;5.00;4.00;;;;;17.24;58.32;101095.94;5115506;27;45421;-68
2022/06/06 03:15:12;;;;;;;;;5.00;3.75;;;;;17.24;58.27;101098.59;5111963;27;46089;-68
2022/06/06 03:21:13;;;;;;;;;3.25;3.25;;;;;17.15;57.26;101104.34;5114403;27;45789;-68
2022/06/06 03:24:03;;;;;;;;;4.75;2.75;;;;;17.13;57.73;101108.84;5109987;27;45325;-68
2022/06/06 03:26:28;;;;;;;;;4.50;2.75;;;;;17.10;57.38;101106.34;5108485;27;46364;-68
2022/06/06 03:29:12;;;;;;;;;2.67;2.67;;;;;17.10;57.49;101106.34;5112733;27;45193;-68
2022/06/06 03:31:46;;;;;;;;;3.75;3.50;;;;;17.06;57.27;101119.69;5119145;27;45319;-68
2022/06/06 03:34:17;;;;;;;;;3.25;2.00;;;;;17.03;56.74;101111.94;5092074;27;45566;-69
2022/06/06 03:37:01;;;;;;;;;2.00;2.00;;;;;16.96;56.57;101114.94;5111931;27;46037;-69
2022/06/06 03:39:41;;;;;;;;;2.50;2.50;;;;;16.95;56.59;101107.94;5092954;27;45521;-69
2022/06/06 03:42:17;;;;;;;;;4.50;2.00;;;;;16.91;56.86;101115.16;5100088;27;45569;-68
2022/06/06 03:45:19;;;;;;;;;2.25;2.25;;;;;16.90;56.86;101121.38;5114425;27;45493;-68
2022/06/06 03:47:50;;;;;;;;;2.50;2.50;;;;;16.92;57.08;101121.31;5105257;27;47267;-69
2022/06/06 03:50:22;;;;;;;;;4.00;2.00;;;;;16.92;56.92;101114.22;5106745;27;45606;-69
2022/06/06 03:53:00;;;;;;;;;3.00;3.00;;;;;16.92;57.28;101114.22;5117515;27;45485;-70
2022/06/06 03:55:35;;;;;;;;;2.00;1.75;;;;;16.87;57.07;101116.22;5101583;27;45389;-69
2022/06/06 03:58:03;;;;;;;;;2.75;2.75;;;;;16.82;57.26;101112.91;5115087;27;46907;-69
2022/06/06 04:00:30;;;;;;;;;3.25;2.00;;;;;16.80;57.40;101118.28;5114838;27;45447;-69
2022/06/06 04:02:55;;;;;;;;;4.25;3.00;;;;;16.77;57.64;101120.19;5098905;27;45344;-68
2022/06/06 04:05:22;;;;;;;;;3.00;3.00;;;;;16.78;57.48;101125.41;5093056;27;45497;-68
2022/06/06 04:07:48;;;;;;;;;6.00;3.00;;;;;16.81;57.40;101119.97;5101918;27;47086;-70
2022/06/06 04:10:15;;;;;;;;;3.50;2.00;;;;;16.83;57.32;101134.00;5109281;27;45200;-70
2022/06/06 04:13:12;;;;;;;;;3.25;2.75;;;;;16.84;57.61;101127.81;5105168;27;45483;-69
2022/06/06 04:15:49;;;;;;;;;3.50;1.75;;;;;16.84;57.54;101126.97;5096328;27;45403;-70
2022/06/06 04:18:35;;;;;;;;;1.75;1.75;;;;;16.88;57.00;101136.44;5112526;27;45546;-69
2022/06/06 04:21:27;;;;;;;;;2.75;2.75;;;;;16.87;57.03;101132.09;5116537;27;45778;-69
2022/06/06 04:24:15;;;;;;;;;2.50;1.50;;;;;16.85;56.66;101137.44;5091686;27;45186;-69
2022/06/06 04:27:04;;;;;;;;;1.25;1.25;;;;;16.89;56.89;101138.16;5098576;27;45560;-68
2022/06/06 04:29:45;;;;;;;;;2.00;1.75;;;;;16.91;56.82;101144.25;5099009;27;45593;-68
2022/06/06 04:32:30;;;;;;;;;2.25;2.25;;;;;16.94;56.74;101140.59;5109626;27;45764;-69
2022/06/06 04:35:21;;;;;;;;;2.50;2.25;;;;;16.94;56.76;101136.16;5111505;27;45345;-69
2022/06/06 04:37:59;;;;;;;;;2.25;2.25;;;;;16.95;56.58;101135.22;5112876;27;45345;-69
2022/06/06 04:40:24;;;;;;;;;5.00;3.50;;;;;16.94;56.97;101133.50;5092418;27;46285;-69
2022/06/06 04:42:55;;;;;;;;;3.67;3.67;;;;;16.94;56.98;101133.50;5118105;27;46740;-68
2022/06/06 04:45:46;;;;;;;;;5.75;3.50;;;;;16.95;56.83;101131.75;5103000;27;45421;-70
2022/06/06 04:48:13;;;;;;;;;4.00;2.25;;;;;16.96;57.06;101131.63;5072108;27;45394;-68
2022/06/06 04:50:42;;;;;;;;;2.50;2.00;;;;;16.97;57.29;101128.06;5093898;27;47072;-68
2022/06/06 04:53:11;;;;;;;;;2.75;2.00;;;;;17.01;57.15;101126.16;5112609;27;45565;-69
2022/06/06 04:55:37;;;;;;;;;4.25;1.50;;;;;17.03;57.26;101129.56;5099045;27;45358;-68
2022/06/06 04:58:04;;;;;;;;;2.50;1.50;;;;;17.03;57.07;101127.81;5105588;27;45322;-68
2022/06/06 05:00:34;;;;;;;;;2.50;2.50;;;;;17.06;57.03;101130.28;5105702;27;45359;-68
2022/06/06 05:02:59;;;;;;;;;2.75;2.75;;;;;17.09;57.39;101131.94;5113143;27;45362;-69
2022/06/06 05:05:29;;;;;;;;;0.75;0.00;;;;;17.08;56.92;101132.84;5111195;27;62742;-69
2022/06/06 05:08:09;;;;;;;;;2.00;1.50;;;;;17.02;56.68;101136.66;5104099;27;45245;-69
2022/06/06 05:10:42;;;;;;;;;2.25;1.75;;;;;16.98;56.97;101139.50;5099148;27;46216;-69
2022/06/06 05:13:17;;;;;;;;;2.50;2.50;;;;;16.95;57.01;101137.03;5112481;27;45458;-69
2022/06/06 05:15:51;;;;;;;;;3.00;2.00;;;;;16.98;57.15;101136.84;5106855;27;45296;-68
2022/06/06 05:18:34;;;;;;;;;3.00;2.25;;;;;17.00;57.04;101135.03;5108454;27;45608;-68
2022/06/06 05:21:30;;;;;;;;;4.00;2.00;;;;;17.03;57.09;101140.16;5112575;27;46485;-69
2022/06/06 05:24:18;;;;;;;;;1.75;1.75;;;;;17.02;56.64;101141.09;5109894;27;45244;-68
2022/06/06 05:26:56;;;;;;;;;2.75;0.50;;;;;16.97;56.97;101141.28;5078390;27;44804;-68
2022/06/06 05:29:21;;;;;;;;;2.00;0.50;;;;;16.95;56.72;101140.53;5092755;27;45487;-68
2022/06/06 05:32:08;;;;;;;;;4.33;1.67;;;;;16.97;56.95;101141.28;5108432;27;46543;-68
2022/06/06 05:34:37;;;;;;;;;2.25;1.25;;;;;16.99;56.75;101141.22;5093890;27;45371;-69
2022/06/06 05:37:22;;;;;;;;;0.50;0.50;;;;;17.00;56.45;101148.25;5110003;27;45283;-69
2022/06/06 05:40:07;;;;;;;;;1.00;0.50;;;;;17.00;56.67;101148.25;5117365;27;45357;-68
2022/06/06 05:42:45;;;;;;;;;2.00;1.75;;;;;17.02;56.52;101143.75;5112674;27;46771;-68
2022/06/06 05:45:22;;;;;;;;;1.00;1.00;;;;;17.07;56.34;101141.72;5110923;27;45769;-69
2022/06/06 05:47:56;;;;;;;;;1.25;0.75;;;;;17.12;56.03;101142.34;5094311;27;45617;-69
2022/06/06 05:50:40;;;;;;;;;2.25;1.00;;;;;17.14;56.04;101145.78;5108485;27;45489;-68
2022/06/06 05:53:18;;;;;;;;;2.50;1.00;;;;;17.13;56.00;101151.16;5104052;27;46446;-68
2022/06/06 05:55:56;;;;;;;;;0.50;0.50;;;;;17.10;55.94;101153.94;5104280;27;45248;-68
2022/06/06 05:58:27;;;;;;;;;2.00;1.75;;;;;17.10;55.92;101146.84;5112232;27;45173;-69
2022/06/06 06:01:13;;;;;;;;;2.00;2.00;;;;;17.12;56.15;101149.44;5090724;27;45350;-68
2022/06/06 06:04:21;;;;;;;;;1.50;1.50;;;;;17.16;56.36;101151.03;5093627;27;45292;-69
2022/06/06 06:07:13;;;;;;;;;3.00;0.50;;;;;17.21;56.16;101155.16;5113419;27;45170;-68
2022/06/06 06:09:55;;;;;;;;;0.50;0.50;;;;;17.20;56.20;101153.44;5096840;27;45418;-68
2022/06/06 06:12:40;;;;;;;;;1.00;1.00;;;;;17.18;56.08;101165.88;5097853;27;45430;-69
2022/06/06 06:15:17;;;;;;;;;1.00;0.50;;;;;17.16;56.06;101169.53;5092190;27;46233;-68
2022/06/06 06:17:43;;;;;;;;;1.00;1.00;;;;;17.12;56.13;101166.16;5111260;27;45360;-67
2022/06/06 06:20:11;;;;;;;;;1.00;1.00;;;;;17.08;56.30;101176.00;5098400;27;66129;-68
2022/06/06 06:22:40;;;;;;;;;1.50;1.00;;;;;17.07;56.28;101171.66;5098867;27;45416;-68
2022/06/06 06:25:08;;;;;;;;;1.25;1.25;;;;;17.09;56.38;101174.25;5111480;27;45392;-68
2022/06/06 06:27:34;;;;;;;;;2.00;1.25;;;;;17.14;56.13;101174.00;5113276;27;45498;-69
2022/06/06 06:30:00;;;;;;;;;0.25;0.25;;;;;17.18;56.13;101172.97;5115666;27;45394;-68
2022/06/06 06:32:37;;;;;;;;;2.00;0.75;;;;;17.21;56.08;101178.97;5110859;27;45743;-68
2022/06/06 06:35:31;;;;;;;;;0.75;0.50;;;;;17.19;56.20;101179.94;5111016;27;46164;-69
2022/06/06 06:38:03;;;;;;;;;2.50;1.50;;;;;17.18;56.16;101180.88;5114045;27;45515;-68
2022/06/06 06:40:56;;;;;;;;;1.00;0.50;;;;;17.19;55.98;101191.41;5111621;27;45579;-68
2022/06/06 06:43:47;;;;;;;;;2.00;0.75;;;;;17.22;56.57;101191.22;5108938;27;45577;-69
2022/06/06 06:46:27;;;;;;;;;2.25;0.75;;;;;17.30;56.37;101187.38;5108350;27;45558;-68
2022/06/06 06:49:04;;;;;;;;;1.75;1.50;;;;;17.35;56.14;101183.59;5116277;27;45727;-69
2022/06/06 06:51:44;;;;;;;;;3.75;0.75;;;;;17.41;56.17;101191.22;5092032;27;45460;-68
2022/06/06 06:54:51;;;;;;;;;1.00;0.75;;;;;17.48;55.81;101193.59;5093164;27;45631;-69
2022/06/06 06:57:31;;;;;;;;;2.00;1.00;;;;;17.50;56.13;101186.41;5089634;27;46196;-68
2022/06/06 07:00:02;;;;;;;;;0.75;0.75;;;;;17.59;55.87;101191.25;5104148;27;45340;-68
2022/06/06 07:09:00;;;;;;;;;2.50;2.00;;;;;17.83;55.26;101187.41;5104772;27;45169;-70
2022/06/06 07:11:38;;;;;;;;;0.75;0.75;;;;;17.92;55.29;101186.09;5093405;27;45237;-68
2022/06/06 07:14:03;;;;;;;;;2.00;1.75;;;;;18.01;55.04;101192.72;5105792;27;45372;-67
2022/06/06 07:16:39;;;;;;;;;1.00;1.00;;;;;18.05;55.01;101190.78;5107286;27;46038;-67
2022/06/06 07:19:08;;;;;;;;;2.00;2.00;;;;;18.11;54.88;101193.94;5101918;27;46013;-68
2022/06/06 07:21:35;;;;;;;;;1.00;1.00;;;;;18.17;54.65;101190.16;5093135;27;45645;-68
2022/06/06 07:24:08;;;;;;;;;0.50;0.50;;;;;18.24;54.36;101186.25;5106472;27;45209;-68
2022/06/06 07:26:41;;;;;;;;;1.75;1.75;;;;;18.33;54.38;101192.88;5110354;27;45607;-68
2022/06/06 07:29:07;;;;;;;;;2.25;1.00;;;;;18.42;53.83;101192.38;5104349;27;46324;-67
2022/06/06 07:31:41;;;;;;;;;2.00;1.00;;;;;18.53;53.86;101191.81;5101227;27;45674;-68
2022/06/06 07:34:34;;;;;;;;;1.00;1.00;;;;;18.62;53.83;101186.00;5103996;27;45406;-68
2022/06/06 07:37:19;;;;;;;;;1.25;1.25;;;;;18.70;53.09;101181.16;5084058;27;45416;-68
2022/06/06 07:40:04;;;;;;;;;2.00;1.00;;;;;18.78;53.16;101186.03;5094951;27;45421;-68
2022/06/06 07:42:39;;;;;;;;;1.75;1.00;;;;;18.86;53.19;101183.88;5099438;27;45829;-68
2022/06/06 07:45:18;;;;;;;;;3.00;1.00;;;;;19.01;52.20;101184.81;5106659;27;45453;-71
2022/06/06 07:47:55;;;;;;;;;4.00;1.50;;;;;19.14;52.30;101188.50;5107761;27;45496;-70
2022/06/06 07:50:26;;;;;;;;;0.00;0.00;;;;;19.25;52.32;101176.44;5117900;27;46177;-69
2022/06/06 07:53:06;;;;;;;;;1.00;1.00;;;;;19.28;51.76;101181.56;5096800;27;45470;-68
2022/06/06 07:55:32;;;;;;;;;1.00;0.50;;;;;19.27;51.04;101183.34;5101771;27;45260;-68
2022/06/06 07:58:17;;;;;;;;;1.25;1.25;;;;;19.20;51.73;101181.16;5105394;27;45754;-66
2022/06/06 08:00:48;;;;;;;;;2.00;0.00;;;;;19.15;51.46;101171.63;5097556;27;48239;-66
2022/06/06 08:03:18;;;;;;;;;2.00;1.00;;;;;19.17;51.58;101176.84;5095157;27;45723;-70
2022/06/06 08:06:12;;;;;;;;;2.25;1.25;;;;;19.23;51.71;101175.66;5102348;27;45598;-67
2022/06/06 08:08:52;;;;;;;;;1.50;1.00;;;;;19.22;51.45;101172.16;5094325;27;45576;-69
2022/06/06 08:11:35;;;;;;;;;1.00;1.00;;;;;19.28;51.35;101170.94;5089594;27;46131;-66
2022/06/06 08:14:37;;;;;;;;;1.25;1.00;;;;;19.40;50.99;101175.56;5110230;27;45330;-66
2022/06/06 08:17:08;;;;;;;;;1.25;0.75;;;;;19.54;50.75;101172.13;5108127;27;45165;-68
2022/06/06 08:20:01;;;;;;;;;3.50;1.00;;;;;19.57;50.10;101171.09;5104306;27;45273;-68
2022/06/06 08:22:26;;;;;;;;;3.50;1.75;;;;;19.62;49.60;101164.56;5098822;27;45493;-66
2022/06/06 08:24:54;;;;;;;;;1.50;1.50;;;;;19.68;50.03;101169.50;5088041;27;45632;-68
2022/06/06 08:27:20;;;;;;;;;2.00;2.00;;;;;19.79;49.69;101168.06;5108034;27;45424;-66
2022/06/06 08:29:46;;;;;;;;;2.50;1.25;;;;;19.87;49.20;101168.47;5110801;27;45600;-69
2022/06/06 08:32:12;;;;;;;;;1.25;1.00;;;;;19.87;49.33;101166.66;5107120;27;46411;-66
2022/06/06 08:34:38;;;;;;;;;1.25;1.00;;;;;19.96;49.26;101159.09;5101378;27;45341;-67
2022/06/06 08:37:36;;;;;;;;;2.50;1.50;;;;;20.03;48.04;101157.78;5103505;27;45431;-68
2022/06/06 08:40:19;;;;;;;;;2.00;1.00;;;;;20.02;48.71;101154.25;5091848;27;45880;-71
2022/06/06 08:43:00;;;;;;;;;1.00;1.00;;;;;20.07;48.34;101157.50;5091580;27;46095;-71
2022/06/06 08:45:38;;;;;;;;;2.00;0.00;;;;;20.14;48.24;101163.31;5087218;27;45990;-72
2022/06/06 08:48:21;;;;;;;;;1.50;1.50;;;;;20.24;47.95;101152.97;5089042;27;45458;-70
2022/06/06 08:51:19;;;;;;;;;1.00;0.50;;;;;20.26;46.83;101157.25;5085807;27;45666;-70
2022/06/06 08:54:13;;;;;;;;;2.00;1.75;;;;;20.27;47.45;101152.78;5096668;27;45694;-68
2022/06/06 08:56:51;;;;;;;;;0.00;0.00;;;;;20.23;46.39;101156.56;5082226;27;45508;-71
2022/06/06 08:59:50;;;;;;;;;1.75;1.00;;;;;20.20;46.72;101151.44;5090273;27;45535;-71
2022/06/06 09:02:30;;;;;;;;;1.50;1.50;;;;;20.22;47.38;101155.72;5089731;27;45806;-71
2022/06/06 09:04:59;;;;;;;;;2.00;2.00;;;;;20.34;46.85;101155.91;5085003;27;45387;-70
2022/06/06 09:07:36;;;;;;;;;0.00;0.00;;;;;20.51;47.37;101160.22;5097331;27;45326;-70
2022/06/06 09:10:10;;;;;;;;;0.00;0.00;;;;;20.55;46.44;101146.59;5101706;27;45232;-72
2022/06/06 09:13:00;;;;;;;;;0.75;0.75;;;;;20.55;45.88;101149.25;5101394;27;45359;-71
2022/06/06 09:15:43;;;;;;;;;1.00;1.00;;;;;20.66;45.81;101159.25;5088303;27;47378;-70
2022/06/06 09:18:18;;;;;;;;;1.00;1.00;;;;;20.80;45.85;101147.75;5088098;27;47092;-71
2022/06/06 09:20:51;;;;;;;;;0.00;0.00;;;;;20.83;44.34;101164.38;5087397;27;45303;-71
2022/06/06 09:23:29;;;;;;;;;0.75;0.75;;;;;20.88;44.66;101157.94;5096466;27;45366;-71
2022/06/06 09:26:05;;;;;;;;;0.00;0.00;;;;;20.97;44.90;101154.69;5094564;27;45513;-69
2022/06/06 09:28:48;;;;;;;;;1.00;1.00;;;;;20.94;45.00;101155.72;5098546;27;45764;-71
2022/06/06 09:31:35;;;;;;;;;2.00;1.25;;;;;20.94;45.93;101153.06;5100817;27;45493;-69
2022/06/06 09:34:06;;;;;;;;;2.00;0.00;;;;;21.03;44.94;101152.47;5092297;27;45653;-72
2022/06/06 09:36:59;;;;;;;;;0.75;0.75;;;;;21.16;44.56;101147.22;5088331;27;45504;-72
2022/06/06 09:39:42;;;;;;;;;2.00;0.25;;;;;21.27;44.30;101143.00;5107268;27;45904;-71
2022/06/06 09:42:17;;;;;;;;;2.00;0.00;;;;;21.21;42.28;101147.78;5107549;27;45391;-66
2022/06/06 09:44:58;;;;;;;;;2.00;0.75;;;;;21.13;43.10;101149.22;5088594;27;45446;-68
2022/06/06 09:47:41;;;;;;;;;1.25;1.25;;;;;21.19;43.64;101136.34;5107801;27;48741;-72
2022/06/06 09:50:19;;;;;;;;;2.00;2.00;;;;;21.34;43.44;101141.66;5112197;27;45816;-67
2022/06/06 09:53:15;;;;;;;;;0.25;0.25;;;;;21.94;43.73;101140.31;5108495;27;45347;-62
2022/06/06 09:59:02;;;;;;;;;1.00;1.00;;;;;24.62;39.57;101144.66;5112286;27;45217;-64
2022/06/06 10:01:42;;;;;;;;;0.00;0.00;;;;;24.56;38.31;101145.16;5102204;27;45307;-63
2022/06/06 10:04:26;;;;;;;;;2.00;1.00;;;;;25.53;37.41;101140.81;5111349;27;47237;-66
2022/06/06 10:07:22;;;;;;;;;1.00;1.00;;;;;27.02;36.69;101137.78;5103465;27;45675;-66
2022/06/06 10:10:14;;;;;;;;;0.00;0.00;;;;;28.20;33.23;101133.22;5099043;27;45528;-66
2022/06/06 10:12:46;;;;;;;;;3.25;0.00;;;;;28.34;32.64;101140.81;5088728;27;45411;-66
2022/06/06 10:15:26;;;;;;;;;1.00;0.50;;;;;27.87;34.29;101135.41;5107409;27;45486;-65
2022/06/06 10:18:13;;;;;;;;;0.00;0.00;;;;;27.50;34.14;101137.97;5108605;27;45938;-66
2022/06/06 10:20:41;;;;;;;;;1.25;0.00;;;;;27.92;34.38;101137.69;5119752;27;46255;-67
2022/06/06 10:23:13;;;;;;;;;0.50;0.50;;;;;27.89;33.29;101143.31;5119417;27;45381;-67
2022/06/06 10:26:02;;;;;;;;;0.00;0.00;;;;;27.46;33.42;101142.78;5097680;27;45397;-67
2022/06/06 10:28:33;;;;;;;;;0.00;0.00;;;;;26.93;33.87;101140.44;5091547;27;45588;-67
2022/06/06 10:30:58;;;;;;;;;0.00;0.00;;;;;27.41;32.63;101145.91;5109963;27;45389;-67
2022/06/06 10:33:50;;;;;;;;;0.00;0.00;;;;;28.46;32.98;101140.63;5115188;27;45330;-67
2022/06/06 10:36:21;;;;;;;;;0.00;0.00;;;;;30.03;32.28;101143.91;5105405;27;45346;-62
2022/06/06 10:39:10;;;;;;;;;0.50;0.00;;;;;30.99;29.75;101142.88;5106203;27;45415;-62
2022/06/06 10:41:54;;;;;;;;;1.00;0.00;;;;;31.89;30.00;101144.78;5095757;27;46159;-70
2022/06/06 10:44:54;;;;;;;;;0.00;0.00;;;;;33.38;26.63;101132.31;5105041;27;45308;-69
2022/06/06 10:47:52;;;;;;;;;0.00;0.00;;;;;34.57;26.76;101136.03;5114061;27;45415;-70
2022/06/06 10:51:36;;;;;;;;;7.00;6.00;;;;;34.66;24.99;101138.66;5057644;27;45907;-71
2022/06/06 10:53:56;;;;;;;;;2.00;1.75;;;;;33.60;25.88;101139.59;5091673;27;45445;-57
2022/06/06 10:56:24;;;;;;;;;0.00;0.00;;;;;33.53;26.02;101126.94;5107561;27;45484;-55
2022/06/06 10:59:09;;;;;;;;;0.00;0.00;;;;;34.21;26.45;101130.53;5110735;27;45459;-53
2022/06/06 11:02:12;;;;;;;;;2.75;1.00;;;;;34.71;25.17;101122.66;5093950;27;45465;-55
2022/06/06 11:05:11;;;;;;;;;1.75;1.00;;;;;34.73;25.04;101126.03;5114218;27;46340;-54
2022/06/06 11:07:46;;;;;;;;;3.00;2.50;;;;;34.45;25.13;101123.13;5109993;27;45361;-52
2022/06/06 11:10:11;;;;;;;;;2.25;0.50;;;;;34.79;24.82;101126.09;5106283;27;45230;-54
2022/06/06 11:13:11;;;;;;;;;0.00;0.00;;;;;35.10;22.00;101122.25;5107185;27;45457;-53
2022/06/06 11:16:10;;;;;;;;;0.00;0.00;;;;;35.15;22.24;101127.09;5106978;27;46455;-53
2022/06/06 11:18:45;;;;;;;;;0.00;0.00;;;;;35.68;23.59;101126.72;5095523;27;45446;-54
2022/06/06 11:21:32;;;;;;;;;0.75;0.75;;;;;36.67;23.31;101125.66;5110793;27;45621;-52
2022/06/06 11:24:07;;;;;;;;;0.00;0.00;;;;;37.49;22.34;101123.75;5117170;27;45437;-53
2022/06/06 11:26:49;;;;;;;;;0.75;0.00;;;;;37.97;21.99;101128.16;5116559;27;45428;-55
2022/06/06 11:29:32;;;;;;;;;0.00;0.00;;;;;37.61;20.83;101129.41;5098735;27;45390;-54
2022/06/06 11:32:40;;;;;;;;;0.75;0.00;;;;;36.71;21.13;101123.38;5117265;27;45504;-54
2022/06/06 11:35:24;;;;;;;;;6.75;5.75;;;;;35.89;21.48;101121.28;5100464;27;45402;-56
2022/06/06 11:38:07;;;;;;;;;2.25;2.25;;;;;35.76;22.24;101123.06;5099388;27;46277;-57
2022/06/06 11:40:42;;;;;;;;;1.00;1.00;;;;;35.26;22.18;101123.88;5119039;27;46422;-52
2022/06/06 11:43:25;;;;;;;;;107.00;90.50;;;;;34.32;22.41;101121.94;5113209;27;46229;-55
2022/06/06 11:46:09;;;;;;;;;5.50;4.00;;;;;33.38;23.08;101126.88;5112163;27;45485;-57
2022/06/06 11:48:41;;;;;;;;;0.00;0.00;;;;;33.32;24.06;101124.91;5103279;27;45564;-57
2022/06/06 11:51:21;;;;;;;;;0.00;0.00;;;;;33.83;22.89;101120.56;5115578;27;45471;-56
2022/06/06 11:54:08;;;;;;;;;0.00;0.00;;;;;34.68;22.61;101123.00;5105167;27;45670;-56
2022/06/06 11:56:35;;;;;;;;;1.00;0.00;;;;;35.34;22.57;101117.47;5108893;27;45521;-56
2022/06/06 11:59:48;;;;;;;;;0.00;0.00;;;;;35.51;21.14;101115.31;5109633;27;45497;-55
2022/06/06 12:02:45;;;;;;;;;1.00;1.00;;;;;35.22;22.24;101119.88;5097463;27;45253;-56
2022/06/06 12:05:25;;;;;;;;;0.00;0.00;;;;;35.40;21.72;101118.53;5115939;27;45441;-57
2022/06/06 12:08:14;;;;;;;;;1.00;1.00;;;;;35.12;21.99;101124.75;5094516;27;45422;-56
2022/06/06 12:11:07;;;;;;;;;2.00;1.00;;;;;34.36;22.24;101108.81;5112559;27;46496;-55
2022/06/06 12:14:18;;;;;;;;;2.00;2.00;;;;;33.37;22.86;101109.78;5103203;27;45300;-56
2022/06/06 12:16:58;;;;;;;;;2.00;2.00;;;;;32.28;24.07;101088.03;5084239;27;45559;-55
2022/06/06 12:20:01;;;;;;;;;0.00;0.00;;;;;31.23;24.20;101107.78;5118320;27;45303;-56
2022/06/06 12:22:59;;;;;;;;;0.75;0.00;;;;;30.35;25.23;101101.91;5119803;27;45516;-55
2022/06/06 12:25:57;;;;;;;;;1.25;0.00;;;;;30.30;25.34;101107.78;5101373;27;45575;-54
2022/06/06 12:29:01;;;;;;;;;0.25;0.25;;;;;29.96;25.75;101108.63;5103338;27;45665;-55
2022/06/06 12:31:46;;;;;;;;;0.00;0.00;;;;;29.82;25.96;101103.78;5087688;27;45929;-55